Time,TemperatureF,DewpointF,PressureIn,WindDirection,WindDirectionDegrees,WindSpeedMPH,WindSpeedGustMPH,Humidity,HourlyPrecipIn,Conditions,Clouds,dailyrainin,SoftwareType,DateUTC
2013-02-16 00:01:00,35.0,33.0,30.18,West,265,0.0,-999.0,93,-99.99,,,-99.99,,2013-02-16 08:01:00,
2013-02-16 00:11:00,35.0,33.0,30.18,West,265,0.0,-999.0,93,-99.99,,,-99.99,,2013-02-16 08:11:00,
2013-02-16 00:21:00,35.0,33.0,30.18,West,265,0.0,-999.0,93,-99.99,,,-99.99,,2013-02-16 08:21:00,
2013-02-16 00:31:00,35.0,33.0,30.19,West,265,0.0,-999.0,93,-99.99,,,-99.99,,2013-02-16 08:31:00,
2013-02-16 00:41:00,35.0,33.0,30.19,West,265,0.0,-999.0,93,-99.99,,,-99.99,,2013-02-16 08:41:00,
2013-02-16 00:52:00,35.0,33.0,30.19,West,265,0.0,-999.0,93,-99.99,,,-99.99,,2013-02-16 08:52:00,
2013-02-16 01:01:00,35.0,33.0,30.19,West,265,0.0,-999.0,93,-99.99,,,-99.99,,2013-02-16 09:01:00,
2013-02-16 01:11:00,35.0,33.0,30.19,West,265,0.0,-999.0,93,-99.99,,,-99.99,,2013-02-16 09:11:00,
2013-02-16 01:21:00,34.0,32.0,30.19,West,265,0.0,-999.0,93,-99.99,,,-99.99,,2013-02-16 09:21:00,
2013-02-16 01:31:00,34.0,32.0,30.19,West,265,0.0,-999.0,93,-99.99,,,-99.99,,2013-02-16 09:31:00,
2013-02-16 01:42:00,34.0,32.0,30.19,West,265,0.0,-999.0,93,-99.99,,,-99.99,,2013-02-16 09:42:00,
2013-02-16 01:51:00,34.0,32.0,30.19,West,265,0.0,-999.0,93,-99.99,,,-99.99,,2013-02-16 09:51:00,
2013-02-16 02:01:00,34.0,32.0,30.19,West,265,0.0,-999.0,93,-99.99,,,-99.99,,2013-02-16 10:01:00,
2013-02-16 02:11:00,34.0,32.0,30.19,West,265,0.0,-999.0,93,-99.99,,,-99.99,,2013-02-16 10:11:00,
2013-02-16 02:21:00,33.0,31.0,30.18,West,265,0.0,-999.0,93,-99.99,,,-99.99,,2013-02-16 10:21:00,
2013-02-16 02:31:00,33.0,31.0,30.18,West,263,0.0,-999.0,93,-99.99,,,-99.99,,2013-02-16 10:31:00,
2013-02-16 02:41:00,33.0,31.0,30.18,West,263,0.0,-999.0,93,-99.99,,,-99.99,,2013-02-16 10:41:00,
2013-02-16 02:51:00,34.0,32.0,30.18,East,94,0.0,-999.0,93,-99.99,,,-99.99,,2013-02-16 10:51:00,
2013-02-16 03:02:00,34.0,32.0,30.18,East,94,0.0,-999.0,93,-99.99,,,-99.99,,2013-02-16 11:02:00,
2013-02-16 03:11:00,34.0,32.0,30.18,East,94,0.0,-999.0,93,-99.99,,,-99.99,,2013-02-16 11:11:00,
2013-02-16 03:22:00,34.0,32.0,30.17,East,96,0.0,-999.0,93,-99.99,,,-99.99,,2013-02-16 11:22:00,
2013-02-16 03:31:00,34.0,32.0,30.17,East,96,0.0,-999.0,93,-99.99,,,-99.99,,2013-02-16 11:31:00,
2013-02-16 03:42:00,34.0,32.0,30.17,East,96,0.0,-999.0,93,-99.99,,,-99.99,,2013-02-16 11:42:00,
2013-02-16 03:52:00,34.0,32.0,30.18,NE,42,0.0,-999.0,93,-99.99,,,-99.99,,2013-02-16 11:52:00,
2013-02-16 04:01:00,36.0,34.0,30.18,South,182,0.0,-999.0,94,-99.99,,,-99.99,,2013-02-16 12:01:00,
2013-02-16 04:12:00,36.0,34.0,30.18,South,182,0.0,-999.0,94,-99.99,,,-99.99,,2013-02-16 12:12:00,
2013-02-16 04:22:00,40.0,39.0,30.19,WSW,257,0.0,-999.0,95,-99.99,,,-99.99,,2013-02-16 12:22:00,
2013-02-16 04:32:00,43.0,42.0,30.19,East,86,0.0,-999.0,95,-99.99,,,-99.99,,2013-02-16 12:32:00,
2013-02-16 04:42:00,43.0,42.0,30.19,East,86,0.0,-999.0,95,-99.99,,,-99.99,,2013-02-16 12:42:00,
2013-02-16 04:52:00,44.0,43.0,30.19,SW,214,4.0,-999.0,95,-99.99,,,-99.99,,2013-02-16 12:52:00,
2013-02-16 05:01:00,44.0,43.0,30.19,SSW,196,5.0,-999.0,95,-99.99,,,-99.99,,2013-02-16 13:01:00,
2013-02-16 05:11:00,44.0,43.0,30.19,SSW,196,5.0,-999.0,95,-99.99,,,-99.99,,2013-02-16 13:11:00,
2013-02-16 05:21:00,45.0,43.0,30.19,SSW,209,6.0,-999.0,94,-99.99,,,-99.99,,2013-02-16 13:21:00,
2013-02-16 05:31:00,45.0,43.0,30.20,South,171,4.0,-999.0,93,-99.99,,,-99.99,,2013-02-16 13:31:00,
2013-02-16 05:41:00,45.0,43.0,30.20,South,171,4.0,-999.0,93,-99.99,,,-99.99,,2013-02-16 13:41:00,
2013-02-16 05:51:00,45.0,43.0,30.20,South,189,4.0,-999.0,93,-99.99,,,-99.99,,2013-02-16 13:51:00,
2013-02-16 06:01:00,44.0,42.0,30.20,SW,217,4.0,-999.0,92,-99.99,,,-99.99,,2013-02-16 14:01:00,
2013-02-16 06:11:00,44.0,42.0,30.20,SW,217,4.0,-999.0,92,-99.99,,,-99.99,,2013-02-16 14:11:00,
2013-02-16 06:21:00,45.0,43.0,30.20,SSW,213,6.0,-999.0,92,-99.99,,,-99.99,,2013-02-16 14:21:00,
2013-02-16 06:32:00,45.0,43.0,30.20,SSW,198,6.0,-999.0,92,-99.99,,,-99.99,,2013-02-16 14:32:00,
2013-02-16 06:41:00,45.0,43.0,30.20,SSW,198,6.0,-999.0,92,-99.99,,,-99.99,,2013-02-16 14:41:00,
2013-02-16 06:52:00,44.0,42.0,30.20,South,182,4.0,-999.0,92,-99.99,,,-99.99,,2013-02-16 14:52:00,
2013-02-16 07:01:00,44.0,42.0,30.20,SSW,209,4.0,-999.0,91,-99.99,,,-99.99,,2013-02-16 15:01:00,
2013-02-16 07:11:00,44.0,42.0,30.20,SSW,209,4.0,-999.0,91,-99.99,,,-99.99,,2013-02-16 15:11:00,
2013-02-16 07:21:00,44.0,42.0,30.20,SSW,201,4.0,-999.0,91,-99.99,,,-99.99,,2013-02-16 15:21:00,
2013-02-16 07:31:00,44.0,42.0,30.20,SSW,200,5.0,-999.0,91,-99.99,,,-99.99,,2013-02-16 15:31:00,
2013-02-16 07:41:00,44.0,42.0,30.20,SSW,200,5.0,-999.0,91,-99.99,,,-99.99,,2013-02-16 15:41:00,
2013-02-16 07:51:00,44.0,42.0,30.20,SSW,202,6.0,-999.0,91,-99.99,,,-99.99,,2013-02-16 15:51:00,
2013-02-16 08:01:00,44.0,42.0,30.20,SSW,204,4.0,-999.0,91,-99.99,,,-99.99,,2013-02-16 16:01:00,
2013-02-16 08:11:00,44.0,42.0,30.20,SSW,204,4.0,-999.0,91,-99.99,,,-99.99,,2013-02-16 16:11:00,
2013-02-16 08:21:00,45.0,43.0,30.20,SSW,211,4.0,-999.0,91,-99.99,,,-99.99,,2013-02-16 16:21:00,
2013-02-16 08:32:00,45.0,42.0,30.21,SSW,213,5.0,-999.0,90,-99.99,,,-99.99,,2013-02-16 16:32:00,
2013-02-16 08:41:00,45.0,42.0,30.21,SSW,213,5.0,-999.0,90,-99.99,,,-99.99,,2013-02-16 16:41:00,
2013-02-16 08:51:00,45.0,42.0,30.21,SSW,207,6.0,-999.0,89,-99.99,,,-99.99,,2013-02-16 16:51:00,
2013-02-16 09:01:00,45.0,43.0,30.22,South,181,5.0,-999.0,91,-99.99,,,-99.99,,2013-02-16 17:01:00,
2013-02-16 09:11:00,45.0,43.0,30.22,South,181,5.0,-999.0,91,-99.99,,,-99.99,,2013-02-16 17:11:00,
2013-02-16 09:21:00,45.0,43.0,30.22,SSW,200,4.0,-999.0,91,-99.99,,,-99.99,,2013-02-16 17:21:00,
2013-02-16 09:31:00,45.0,43.0,30.22,SSW,200,4.0,-999.0,92,-99.99,,,-99.99,,2013-02-16 17:31:00,
2013-02-16 09:41:00,45.0,43.0,30.22,SSW,200,4.0,-999.0,92,-99.99,,,-99.99,,2013-02-16 17:41:00,
2013-02-16 09:52:00,45.0,43.0,30.22,SW,220,4.0,-999.0,92,-99.99,,,-99.99,,2013-02-16 17:52:00,
2013-02-16 10:01:00,45.0,43.0,30.22,SSW,207,5.0,-999.0,92,-99.99,,,-99.99,,2013-02-16 18:01:00,
2013-02-16 10:11:00,45.0,43.0,30.22,SSW,201,5.0,-999.0,92,-99.99,,,-99.99,,2013-02-16 18:11:00,
2013-02-16 10:21:00,45.0,43.0,30.22,SSW,201,5.0,-999.0,92,-99.99,,,-99.99,,2013-02-16 18:21:00,
2013-02-16 10:32:00,45.0,43.0,30.21,SSW,213,2.0,-999.0,92,-99.99,,,-99.99,,2013-02-16 18:32:00,
2013-02-16 10:41:00,45.0,43.0,30.21,SSW,213,2.0,-999.0,92,-99.99,,,-99.99,,2013-02-16 18:41:00,
2013-02-16 10:51:00,45.0,43.0,30.21,SSW,196,4.0,-999.0,91,-99.99,,,-99.99,,2013-02-16 18:51:00,
2013-02-16 11:02:00,45.0,43.0,30.21,South,169,3.0,-999.0,91,-99.99,,,-99.99,,2013-02-16 19:02:00,
2013-02-16 11:11:00,45.0,43.0,30.21,South,169,3.0,-999.0,91,-99.99,,,-99.99,,2013-02-16 19:11:00,
2013-02-16 11:21:00,46.0,44.0,30.21,SSW,204,5.0,-999.0,91,-99.99,,,-99.99,,2013-02-16 19:21:00,
2013-02-16 11:31:00,46.0,43.0,30.21,SSW,209,6.0,-999.0,90,-99.99,,,-99.99,,2013-02-16 19:31:00,
2013-02-16 11:42:00,46.0,43.0,30.21,SSW,209,6.0,-999.0,90,-99.99,,,-99.99,,2013-02-16 19:42:00,
2013-02-16 11:52:00,46.0,43.0,30.22,SSW,194,5.0,-999.0,89,-99.99,,,-99.99,,2013-02-16 19:52:00,
2013-02-16 12:01:00,46.0,43.0,30.21,SSW,206,2.0,-999.0,90,-99.99,,,-99.99,,2013-02-16 20:01:00,
2013-02-16 12:11:00,47.0,43.0,30.21,West,263,5.0,-999.0,87,-99.99,,,-99.99,,2013-02-16 20:11:00,
2013-02-16 12:21:00,47.0,43.0,30.21,West,263,5.0,-999.0,87,-99.99,,,-99.99,,2013-02-16 20:21:00,
2013-02-16 12:32:00,47.0,43.0,30.20,SW,217,4.0,-999.0,87,-99.99,,,-99.99,,2013-02-16 20:32:00,
2013-02-16 12:42:00,47.0,43.0,30.20,SW,217,4.0,-999.0,87,-99.99,,,-99.99,,2013-02-16 20:42:00,
2013-02-16 12:52:00,47.0,44.0,30.19,SSW,202,3.0,-999.0,88,-99.99,,,-99.99,,2013-02-16 20:52:00,
2013-02-16 13:02:00,48.0,44.0,30.19,NW,305,5.0,-999.0,85,-99.99,,,-99.99,,2013-02-16 21:02:00,
2013-02-16 13:11:00,48.0,44.0,30.19,NW,305,5.0,-999.0,85,-99.99,,,-99.99,,2013-02-16 21:11:00,
2013-02-16 13:21:00,49.0,43.0,30.19,WSW,238,5.0,-999.0,81,-99.99,,,-99.99,,2013-02-16 21:21:00,
2013-02-16 13:31:00,48.0,41.0,30.19,SSW,209,5.0,-999.0,78,-99.99,,,-99.99,,2013-02-16 21:31:00,
2013-02-16 13:41:00,48.0,41.0,30.19,SSW,209,5.0,-999.0,78,-99.99,,,-99.99,,2013-02-16 21:41:00,
2013-02-16 13:52:00,49.0,42.0,30.19,SSE,167,3.0,-999.0,78,-99.99,,,-99.99,,2013-02-16 21:52:00,
2013-02-16 14:01:00,50.0,43.0,30.19,SW,221,3.0,-999.0,76,-99.99,,,-99.99,,2013-02-16 22:01:00,
2013-02-16 14:11:00,50.0,43.0,30.19,SW,221,3.0,-999.0,76,-99.99,,,-99.99,,2013-02-16 22:11:00,
2013-02-16 14:21:00,50.0,41.0,30.18,WSW,252,5.0,-999.0,71,-99.99,,,-99.99,,2013-02-16 22:21:00,
2013-02-16 14:32:00,50.0,41.0,30.19,West,281,5.0,-999.0,71,-99.99,,,-99.99,,2013-02-16 22:32:00,
2013-02-16 14:42:00,50.0,41.0,30.19,West,281,5.0,-999.0,71,-99.99,,,-99.99,,2013-02-16 22:42:00,
2013-02-16 14:51:00,49.0,40.0,30.18,SSW,213,5.0,-999.0,71,-99.99,,,-99.99,,2013-02-16 22:51:00,
2013-02-16 15:02:00,48.0,42.0,30.19,SSW,212,2.0,-999.0,79,-99.99,,,-99.99,,2013-02-16 23:02:00,
2013-02-16 15:11:00,48.0,42.0,30.19,SSW,212,2.0,-999.0,79,-99.99,,,-99.99,,2013-02-16 23:11:00,
2013-02-16 15:21:00,48.0,43.0,30.19,SSW,213,2.0,-999.0,82,-99.99,,,-99.99,,2013-02-16 23:21:00,
2013-02-16 15:31:00,48.0,41.0,30.19,SSW,202,5.0,-999.0,78,-99.99,,,-99.99,,2013-02-16 23:31:00,
2013-02-16 15:42:00,48.0,41.0,30.19,SSW,202,5.0,-999.0,78,-99.99,,,-99.99,,2013-02-16 23:42:00,
2013-02-16 15:52:00,48.0,41.0,30.19,SSW,213,3.0,-999.0,78,-99.99,,,-99.99,,2013-02-16 23:52:00,
2013-02-16 16:01:00,47.0,40.0,30.20,SW,222,5.0,-999.0,77,-99.99,,,-99.99,,2013-02-17 00:01:00,
2013-02-16 16:11:00,47.0,40.0,30.20,SW,222,5.0,-999.0,77,-99.99,,,-99.99,,2013-02-17 00:11:00,
2013-02-16 16:21:00,47.0,41.0,30.20,SSW,206,4.0,-999.0,78,-99.99,,,-99.99,,2013-02-17 00:21:00,
2013-02-16 16:31:00,46.0,40.0,30.20,WNW,288,5.0,-999.0,78,-99.99,,,-99.99,,2013-02-17 00:31:00,
2013-02-16 16:41:00,46.0,40.0,30.20,WNW,288,5.0,-999.0,78,-99.99,,,-99.99,,2013-02-17 00:41:00,
2013-02-16 16:51:00,46.0,40.0,30.19,SSW,211,3.0,-999.0,80,-99.99,,,-99.99,,2013-02-17 00:51:00,
2013-02-16 17:01:00,46.0,40.0,30.19,WSW,249,3.0,-999.0,78,-99.99,,,-99.99,,2013-02-17 01:01:00,
2013-02-16 17:11:00,46.0,40.0,30.19,WSW,249,3.0,-999.0,78,-99.99,,,-99.99,,2013-02-17 01:11:00,
2013-02-16 17:21:00,45.0,39.0,30.19,SSW,209,4.0,-999.0,78,-99.99,,,-99.99,,2013-02-17 01:21:00,
2013-02-16 17:31:00,44.0,38.0,30.19,SW,234,3.0,-999.0,79,-99.99,,,-99.99,,2013-02-17 01:31:00,
2013-02-16 17:41:00,44.0,38.0,30.19,SW,234,3.0,-999.0,79,-99.99,,,-99.99,,2013-02-17 01:41:00,
2013-02-16 17:52:00,44.0,38.0,30.19,SSW,201,5.0,-999.0,79,-99.99,,,-99.99,,2013-02-17 01:52:00,
2013-02-16 18:01:00,44.0,38.0,30.19,SW,236,5.0,-999.0,80,-99.99,,,-99.99,,2013-02-17 02:01:00,
2013-02-16 18:11:00,44.0,38.0,30.19,SW,236,5.0,-999.0,80,-99.99,,,-99.99,,2013-02-17 02:11:00,
2013-02-16 18:21:00,44.0,39.0,30.20,SW,224,5.0,-999.0,82,-99.99,,,-99.99,,2013-02-17 02:21:00,
2013-02-16 18:31:00,43.0,38.0,30.20,SSW,200,4.0,-999.0,84,-99.99,,,-99.99,,2013-02-17 02:31:00,
2013-02-16 18:41:00,43.0,38.0,30.20,SSW,200,4.0,-999.0,84,-99.99,,,-99.99,,2013-02-17 02:41:00,
2013-02-16 18:51:00,43.0,38.0,30.19,SW,227,4.0,-999.0,84,-99.99,,,-99.99,,2013-02-17 02:51:00,
2013-02-16 19:01:00,42.0,38.0,30.20,SW,221,4.0,-999.0,86,-99.99,,,-99.99,,2013-02-17 03:01:00,
2013-02-16 19:11:00,42.0,38.0,30.20,SW,221,4.0,-999.0,86,-99.99,,,-99.99,,2013-02-17 03:11:00,
2013-02-16 19:21:00,42.0,38.0,30.20,SSW,212,5.0,-999.0,86,-99.99,,,-99.99,,2013-02-17 03:21:00,
2013-02-16 19:31:00,42.0,38.0,30.20,SSW,202,6.0,-999.0,86,-99.99,,,-99.99,,2013-02-17 03:31:00,
2013-02-16 19:41:00,42.0,38.0,30.20,SSW,202,6.0,-999.0,86,-99.99,,,-99.99,,2013-02-17 03:41:00,
2013-02-16 19:51:00,42.0,38.0,30.20,WSW,245,8.0,-999.0,86,-99.99,,,-99.99,,2013-02-17 03:51:00,
2013-02-16 20:01:00,42.0,38.0,30.20,SSW,207,8.0,-999.0,85,-99.99,,,-99.99,,2013-02-17 04:01:00,
2013-02-16 20:11:00,42.0,38.0,30.20,SSW,200,7.0,-999.0,85,-99.99,,,-99.99,,2013-02-17 04:11:00,
2013-02-16 20:21:00,42.0,38.0,30.20,SSW,200,7.0,-999.0,85,-99.99,,,-99.99,,2013-02-17 04:21:00,
2013-02-16 20:31:00,42.0,38.0,30.20,SSW,196,5.0,-999.0,85,-99.99,,,-99.99,,2013-02-17 04:31:00,
2013-02-16 20:41:00,42.0,38.0,30.20,SSW,196,5.0,-999.0,85,-99.99,,,-99.99,,2013-02-17 04:41:00,
2013-02-16 20:51:00,42.0,38.0,30.20,South,191,7.0,-999.0,85,-99.99,,,-99.99,,2013-02-17 04:51:00,
2013-02-16 21:01:00,41.0,37.0,30.20,SSW,205,8.0,-999.0,85,-99.99,,,-99.99,,2013-02-17 05:01:00,
2013-02-16 21:11:00,41.0,37.0,30.20,SSW,207,9.0,-999.0,86,-99.99,,,-99.99,,2013-02-17 05:11:00,
2013-02-16 21:22:00,41.0,37.0,30.20,SSW,207,9.0,-999.0,86,-99.99,,,-99.99,,2013-02-17 05:22:00,
2013-02-16 21:32:00,41.0,37.0,30.20,SW,223,9.0,-999.0,85,-99.99,,,-99.99,,2013-02-17 05:32:00,
2013-02-16 21:42:00,41.0,37.0,30.20,SW,223,9.0,-999.0,85,-99.99,,,-99.99,,2013-02-17 05:42:00,
2013-02-16 21:52:00,41.0,37.0,30.21,SSW,203,6.0,-999.0,86,-99.99,,,-99.99,,2013-02-17 05:52:00,
2013-02-16 22:02:00,41.0,37.0,30.21,SSW,203,6.0,-999.0,86,-99.99,,,-99.99,,2013-02-17 06:02:00,
2013-02-16 22:11:00,41.0,37.0,30.21,SSW,203,6.0,-999.0,86,-99.99,,,-99.99,,2013-02-17 06:11:00,
2013-02-16 22:21:00,41.0,37.0,30.22,SSW,206,6.0,-999.0,86,-99.99,,,-99.99,,2013-02-17 06:21:00,
2013-02-16 22:31:00,40.0,36.0,30.22,SW,236,6.0,-999.0,86,-99.99,,,-99.99,,2013-02-17 06:31:00,
2013-02-16 22:41:00,40.0,36.0,30.22,SW,236,6.0,-999.0,86,-99.99,,,-99.99,,2013-02-17 06:41:00,
2013-02-16 22:51:00,40.0,36.0,30.22,SSW,205,6.0,-999.0,86,-99.99,,,-99.99,,2013-02-17 06:51:00,
2013-02-16 23:01:00,40.0,36.0,30.22,SSW,192,5.0,-999.0,86,-99.99,,,-99.99,,2013-02-17 07:01:00,
2013-02-16 23:11:00,40.0,36.0,30.22,SSW,192,5.0,-999.0,86,-99.99,,,-99.99,,2013-02-17 07:11:00,
2013-02-16 23:21:00,40.0,36.0,30.22,SW,214,4.0,-999.0,86,-99.99,,,-99.99,,2013-02-17 07:21:00,
2013-02-16 23:31:00,40.0,36.0,30.22,WSW,244,4.0,-999.0,86,-99.99,,,-99.99,,2013-02-17 07:31:00,
2013-02-16 23:41:00,40.0,36.0,30.22,WSW,244,4.0,-999.0,86,-99.99,,,-99.99,,2013-02-17 07:41:00,
2013-02-16 23:51:00,40.0,36.0,30.22,South,180,3.0,-999.0,86,-99.99,,,-99.99,,2013-02-17 07:51:00,